Time;durP1;ratioP1;P1;durP2;ratioP2;P2;SDS_P1;SDS_P2;PMS_P1;PMS_P2;Temp;Humidity;BMP_temperature;BMP_pressure;BME280_temperature;BME280_humidity;BME280_pressure;Samples;Min_cycle;Max_cycle;Signal;HPM_P1;HPM_P2
2021/05/31 00:00:08;;;;;;;2.05;0.57;;;23.00;35.80;;;;;;5030652;28;20021;-57
2021/05/31 00:02:34;;;;;;;0.57;0.55;;;23.00;35.90;;;;;;5032144;28;20385;-58
2021/05/31 00:05:00;;;;;;;1.55;0.50;;;23.00;35.90;;;;;;5032009;28;20052;-57
2021/05/31 00:07:26;;;;;;;0.65;0.57;;;23.00;35.90;;;;;;5033829;28;20038;-58
2021/05/31 00:09:56;;;;;;;0.43;0.40;;;23.00;35.90;;;;;;5033602;28;20044;-59
2021/05/31 00:12:22;;;;;;;0.50;0.50;;;23.00;35.70;;;;;;5034099;28;20048;-58
2021/05/31 00:14:48;;;;;;;0.50;0.50;;;23.00;35.60;;;;;;5033429;28;20032;-59
2021/05/31 00:17:14;;;;;;;0.40;0.40;;;23.00;35.90;;;;;;5034626;28;20040;-58
2021/05/31 00:19:41;;;;;;;1.10;0.70;;;23.00;35.80;;;;;;5032578;28;20036;-59
2021/05/31 00:22:07;;;;;;;0.95;0.68;;;23.00;35.70;;;;;;5032956;28;20128;-59
2021/05/31 00:24:33;;;;;;;1.05;0.57;;;23.00;35.80;;;;;;5030493;28;20115;-59
2021/05/31 00:26:59;;;;;;;0.50;0.50;;;23.00;35.80;;;;;;5031196;28;20116;-58
2021/05/31 00:29:25;;;;;;;1.00;0.40;;;23.00;35.60;;;;;;5032601;28;20410;-59
2021/05/31 00:31:53;;;;;;;0.40;0.40;;;23.00;35.80;;;;;;5032246;28;20043;-58
2021/05/31 00:34:19;;;;;;;0.88;0.60;;;23.00;35.60;;;;;;5033088;28;20394;-58
2021/05/31 00:36:45;;;;;;;0.57;0.57;;;23.00;35.80;;;;;;5034854;28;20025;-58
2021/05/31 00:39:10;;;;;;;0.63;0.63;;;23.00;35.60;;;;;;5033493;28;20028;-58
2021/05/31 00:41:36;;;;;;;0.75;0.60;;;23.00;35.50;;;;;;5033114;28;20034;-59
2021/05/31 00:44:03;;;;;;;0.63;0.63;;;23.00;35.40;;;;;;5035547;28;20025;-58
2021/05/31 00:46:29;;;;;;;1.10;0.40;;;23.00;35.60;;;;;;5037571;28;20018;-59
2021/05/31 00:48:55;;;;;;;0.35;0.35;;;23.00;35.60;;;;;;5036761;28;20052;-59
2021/05/31 00:51:21;;;;;;;0.50;0.50;;;23.00;35.70;;;;;;5034524;28;20108;-59
2021/05/31 00:53:46;;;;;;;0.98;0.55;;;23.00;35.70;;;;;;5038633;28;20024;-58
2021/05/31 00:56:13;;;;;;;1.30;0.50;;;23.00;35.50;;;;;;5038065;28;20409;-59
2021/05/31 00:58:39;;;;;;;0.60;0.50;;;23.00;35.40;;;;;;5037719;28;20041;-58
2021/05/31 01:01:06;;;;;;;1.20;0.60;;;23.00;35.50;;;;;;5035598;28;20028;-59
2021/05/31 01:03:32;;;;;;;0.45;0.45;;;23.00;35.40;;;;;;5034406;28;20506;-58
2021/05/31 01:06:02;;;;;;;0.95;0.50;;;23.00;35.40;;;;;;5040772;28;20092;-59
2021/05/31 01:08:55;;;;;;;1.17;0.75;;;23.00;35.30;;;;;;5035698;28;20503;-59
2021/05/31 01:11:39;;;;;;;1.23;0.60;;;23.00;35.20;;;;;;5037078;28;20025;-59
2021/05/31 01:14:20;;;;;;;0.68;0.50;;;23.00;35.20;;;;;;5035589;28;20052;-59
2021/05/31 01:17:00;;;;;;;1.30;0.70;;;23.00;35.40;;;;;;5036417;28;20068;-58
2021/05/31 01:19:34;;;;;;;0.80;0.60;;;23.00;35.40;;;;;;5037335;28;20091;-59
2021/05/31 01:22:08;;;;;;;2.88;0.60;;;23.00;35.40;;;;;;5036165;28;20435;-58
2021/05/31 01:24:37;;;;;;;0.50;0.50;;;23.00;35.40;;;;;;5036438;28;20036;-58
2021/05/31 01:27:42;;;;;;;0.65;0.60;;;23.00;35.20;;;;;;5036111;28;20683;-58
2021/05/31 01:30:10;;;;;;;1.65;0.60;;;23.00;36.00;;;;;;5034438;28;20037;-58
2021/05/31 01:32:52;;;;;;;0.70;0.50;;;23.00;35.40;;;;;;5036056;28;20030;-58
2021/05/31 01:35:23;;;;;;;0.73;0.60;;;23.00;35.30;;;;;;5035305;28;20093;-57
2021/05/31 01:37:50;;;;;;;0.57;0.52;;;23.00;35.20;;;;;;5035906;28;20029;-57
2021/05/31 01:40:16;;;;;;;0.50;0.40;;;23.00;35.20;;;;;;5035029;28;20551;-58
2021/05/31 01:42:43;;;;;;;0.90;0.63;;;23.00;35.10;;;;;;5034800;28;20029;-58
2021/05/31 01:45:13;;;;;;;0.70;0.60;;;23.00;35.20;;;;;;5036187;28;20028;-58
2021/05/31 01:47:41;;;;;;;0.55;0.50;;;23.00;35.10;;;;;;5034310;28;20523;-58
2021/05/31 01:50:11;;;;;;;1.25;0.60;;;23.00;35.10;;;;;;5033959;28;20056;-58
2021/05/31 01:52:39;;;;;;;0.43;0.43;;;23.00;35.20;;;;;;5034781;28;20037;-59
2021/05/31 01:55:05;;;;;;;0.90;0.70;;;23.00;35.10;;;;;;5036096;28;20033;-58
2021/05/31 01:57:31;;;;;;;1.10;0.60;;;23.00;35.20;;;;;;5034990;28;20600;-58
2021/05/31 01:59:57;;;;;;;0.75;0.40;;;23.00;35.20;;;;;;5034997;28;20018;-57
2021/05/31 02:02:23;;;;;;;0.80;0.50;;;23.00;35.20;;;;;;5033849;28;20467;-58
2021/05/31 02:04:49;;;;;;;0.57;0.50;;;23.00;35.20;;;;;;5034020;28;20495;-58
2021/05/31 02:07:15;;;;;;;1.58;0.50;;;23.00;35.20;;;;;;5035104;28;20037;-58
2021/05/31 02:09:41;;;;;;;0.40;0.40;;;23.00;35.20;;;;;;5034232;28;20143;-58
2021/05/31 02:12:11;;;;;;;0.82;0.30;;;23.00;35.10;;;;;;5034876;28;20415;-58
2021/05/31 02:15:04;;;;;;;0.80;0.73;;;22.90;35.10;;;;;;5035772;28;20380;-58
2021/05/31 02:18:04;;;;;;;0.70;0.50;;;23.00;35.30;;;;;;5035250;28;20372;-58
2021/05/31 02:20:33;;;;;;;2.10;0.52;;;22.90;35.20;;;;;;5034604;28;20104;-58
2021/05/31 02:23:02;;;;;;;1.75;0.63;;;23.00;35.20;;;;;;5035774;28;20024;-58
2021/05/31 02:25:28;;;;;;;1.00;0.55;;;23.00;35.20;;;;;;5035702;28;20049;-58
2021/05/31 02:27:56;;;;;;;0.75;0.70;;;23.00;35.20;;;;;;5034383;28;20113;-58
2021/05/31 02:30:22;;;;;;;0.55;0.43;;;23.00;35.20;;;;;;5033998;28;20182;-57
2021/05/31 02:32:55;;;;;;;1.58;0.60;;;23.00;35.20;;;;;;5033597;28;20029;-58
2021/05/31 02:35:22;;;;;;;0.57;0.40;;;23.00;35.20;;;;;;5034672;28;20033;-58
2021/05/31 02:37:48;;;;;;;2.10;0.70;;;22.90;35.20;;;;;;5033452;28;20537;-58
2021/05/31 02:40:14;;;;;;;1.33;0.70;;;22.90;35.10;;;;;;5034540;28;20041;-58
2021/05/31 02:42:50;;;;;;;1.55;0.60;;;22.90;35.80;;;;;;5035598;28;20468;-58
2021/05/31 02:45:17;;;;;;;0.52;0.50;;;23.00;35.20;;;;;;5034586;28;20079;-58
2021/05/31 02:47:44;;;;;;;1.42;1.02;;;23.00;35.20;;;;;;5034365;28;20391;-58
2021/05/31 02:50:11;;;;;;;0.52;0.52;;;23.00;35.10;;;;;;5033363;28;20021;-58
2021/05/31 02:52:43;;;;;;;1.05;0.70;;;23.00;35.20;;;;;;5034625;28;20033;-58
2021/05/31 02:55:14;;;;;;;0.98;0.52;;;22.90;35.20;;;;;;5034395;28;20033;-59
2021/05/31 02:57:40;;;;;;;0.95;0.68;;;23.00;35.20;;;;;;5035679;28;20037;-58
2021/05/31 03:00:10;;;;;;;1.52;0.60;;;23.00;35.10;;;;;;5033229;28;20072;-58
2021/05/31 03:02:36;;;;;;;1.08;0.50;;;23.00;35.20;;;;;;5034283;28;20061;-58
2021/05/31 03:05:05;;;;;;;0.57;0.50;;;23.00;35.20;;;;;;5034702;28;20045;-58
2021/05/31 03:07:31;;;;;;;1.73;0.40;;;23.00;35.10;;;;;;5033553;28;20053;-59
2021/05/31 03:09:57;;;;;;;1.52;0.40;;;22.90;35.10;;;;;;5032986;28;20094;-59
2021/05/31 03:12:23;;;;;;;1.42;0.50;;;22.90;35.20;;;;;;5033308;28;20071;-58
2021/05/31 03:14:51;;;;;;;0.50;0.50;;;22.90;35.10;;;;;;5035236;28;20479;-59
2021/05/31 03:17:17;;;;;;;0.60;0.60;;;23.00;35.20;;;;;;5032976;28;20021;-58
2021/05/31 03:19:43;;;;;;;1.15;0.80;;;22.90;35.10;;;;;;5034315;28;20693;-58
2021/05/31 03:22:09;;;;;;;1.20;0.88;;;22.90;35.10;;;;;;5034422;28;20063;-58
2021/05/31 03:24:35;;;;;;;3.35;0.60;;;22.90;35.20;;;;;;5032761;28;20033;-57
2021/05/31 03:27:02;;;;;;;0.85;0.60;;;22.90;35.20;;;;;;5035172;28;20505;-58
2021/05/31 03:29:28;;;;;;;1.25;0.57;;;23.00;35.20;;;;;;5034552;28;20112;-58
2021/05/31 03:31:54;;;;;;;7.80;1.00;;;23.00;35.20;;;;;;5033842;28;20108;-58
2021/05/31 03:34:19;;;;;;;0.88;0.50;;;23.00;35.20;;;;;;5033376;28;20044;-58
2021/05/31 03:36:45;;;;;;;0.52;0.50;;;22.90;35.10;;;;;;5035132;28;20174;-58
2021/05/31 03:39:11;;;;;;;0.52;0.43;;;22.90;35.10;;;;;;5034397;28;20468;-58
2021/05/31 03:41:37;;;;;;;0.77;0.50;;;22.90;35.10;;;;;;5034711;28;20036;-58
2021/05/31 03:44:03;;;;;;;0.63;0.52;;;22.90;35.20;;;;;;5034614;28;20029;-58
2021/05/31 03:46:28;;;;;;;0.77;0.50;;;23.00;35.20;;;;;;5031852;28;20522;-57
2021/05/31 03:48:54;;;;;;;0.50;0.50;;;22.90;35.20;;;;;;5033217;28;20492;-58
2021/05/31 03:51:20;;;;;;;0.82;0.57;;;22.90;35.20;;;;;;5035142;28;20037;-58
2021/05/31 03:53:46;;;;;;;0.68;0.40;;;22.90;35.20;;;;;;5032355;28;20112;-57
2021/05/31 03:56:12;;;;;;;0.30;0.30;;;22.90;35.20;;;;;;5034665;28;20452;-57
2021/05/31 03:58:40;;;;;;;0.68;0.68;;;22.90;35.20;;;;;;5033052;28;20029;-58
2021/05/31 04:01:06;;;;;;;0.65;0.60;;;22.90;35.20;;;;;;5032336;28;20819;-58
2021/05/31 04:03:32;;;;;;;0.52;0.50;;;22.90;35.20;;;;;;5032747;28;20041;-57
2021/05/31 04:11:40;;;;;;;0.93;0.70;;;22.90;35.20;;;;;;5036360;28;20454;-58
2021/05/31 04:14:17;;;;;;;1.23;0.57;;;22.90;35.20;;;;;;5034941;28;20488;-58
2021/05/31 04:16:46;;;;;;;1.08;0.90;;;22.90;35.20;;;;;;5034941;28;20033;-58
2021/05/31 04:19:13;;;;;;;1.35;0.55;;;22.90;35.20;;;;;;5036504;28;20052;-58
2021/05/31 04:21:42;;;;;;;0.52;0.52;;;22.90;35.20;;;;;;5035919;28;20105;-58
2021/05/31 04:24:08;;;;;;;2.17;0.60;;;22.90;35.20;;;;;;5037460;28;20025;-58
2021/05/31 04:26:35;;;;;;;0.63;0.43;;;22.90;35.20;;;;;;5036598;28;20037;-58
2021/05/31 04:29:01;;;;;;;0.57;0.30;;;22.90;35.20;;;;;;5038653;28;20159;-58
2021/05/31 04:31:27;;;;;;;0.88;0.80;;;22.90;35.40;;;;;;5037391;28;20029;-58
2021/05/31 04:33:53;;;;;;;0.95;0.50;;;22.90;35.30;;;;;;5048872;28;20025;-57
2021/05/31 04:36:19;;;;;;;0.57;0.57;;;23.00;35.30;;;;;;5038172;28;20072;-57
2021/05/31 04:38:45;;;;;;;0.52;0.40;;;23.00;35.40;;;;;;5037753;28;20112;-58
2021/05/31 04:41:11;;;;;;;1.15;0.65;;;22.90;35.30;;;;;;5036888;28;20032;-58
2021/05/31 04:43:36;;;;;;;0.60;0.60;;;22.90;35.30;;;;;;5036467;28;20083;-58
2021/05/31 04:46:03;;;;;;;1.15;0.60;;;22.90;35.40;;;;;;5036419;28;20021;-58
2021/05/31 04:48:30;;;;;;;0.98;0.68;;;22.90;35.40;;;;;;5034227;28;20479;-58
2021/05/31 04:50:56;;;;;;;1.48;0.57;;;22.90;35.30;;;;;;5034602;28;20037;-58
2021/05/31 04:53:26;;;;;;;1.13;0.63;;;23.00;35.40;;;;;;5035904;28;20179;-59
2021/05/31 04:55:56;;;;;;;1.30;0.60;;;22.90;35.40;;;;;;5035623;28;20111;-58
2021/05/31 04:58:23;;;;;;;0.50;0.50;;;22.90;35.50;;;;;;5036521;28;20025;-60
2021/05/31 05:00:49;;;;;;;1.25;1.10;;;23.00;35.50;;;;;;5036522;28;20025;-60
2021/05/31 05:03:15;;;;;;;0.90;0.70;;;22.90;35.60;;;;;;5037271;28;20472;-60
2021/05/31 05:05:40;;;;;;;1.25;0.50;;;23.00;35.60;;;;;;5034883;28;20064;-60
2021/05/31 05:08:06;;;;;;;2.15;0.70;;;23.00;35.80;;;;;;5035698;28;20523;-60
2021/05/31 05:10:33;;;;;;;1.05;0.95;;;23.00;35.80;;;;;;5036491;28;20083;-59
2021/05/31 05:12:59;;;;;;;2.45;0.60;;;23.00;35.90;;;;;;5038267;28;20135;-60
2021/05/31 05:15:25;;;;;;;0.80;0.70;;;23.00;36.50;;;;;;5033301;28;20036;-59
2021/05/31 05:17:52;;;;;;;3.15;0.52;;;23.00;35.90;;;;;;5032813;28;20029;-59
2021/05/31 05:20:19;;;;;;;1.30;1.00;;;23.00;36.00;;;;;;5032678;28;20038;-60
2021/05/31 05:22:45;;;;;;;1.08;0.80;;;23.00;36.00;;;;;;5031635;28;20044;-59
2021/05/31 05:25:12;;;;;;;5.43;0.70;;;23.00;36.10;;;;;;5034276;28;20095;-59
2021/05/31 05:27:39;;;;;;;2.92;0.90;;;23.00;36.30;;;;;;5033206;28;20041;-60
2021/05/31 05:30:05;;;;;;;6.72;1.10;;;23.00;36.30;;;;;;5034130;28;20166;-60
2021/05/31 05:32:32;;;;;;;16.00;0.95;;;23.00;36.30;;;;;;5032098;28;20028;-60
2021/05/31 05:35:07;;;;;;;3.72;1.13;;;23.00;36.40;;;;;;5033023;28;20578;-61
2021/05/31 05:37:34;;;;;;;2.92;0.80;;;23.00;36.40;;;;;;5035221;28;20957;-56
2021/05/31 05:48:06;;;;;;;2.63;1.83;;;22.80;35.80;;;;;;5029985;28;20057;-58
2021/05/31 05:50:32;;;;;;;4.10;2.20;;;22.60;35.60;;;;;;5031415;28;20166;-60
2021/05/31 05:52:58;;;;;;;3.05;1.77;;;22.50;35.80;;;;;;5033710;28;20034;-56
2021/05/31 05:55:24;;;;;;;5.05;1.90;;;22.50;36.10;;;;;;5034184;28;20076;-60
2021/05/31 05:57:49;;;;;;;4.15;1.48;;;22.60;36.10;;;;;;5034713;28;20064;-60
2021/05/31 06:00:22;;;;;;;1.38;1.17;;;22.70;36.20;;;;;;5028660;28;20124;-60
2021/05/31 06:02:48;;;;;;;4.63;1.33;;;22.70;36.30;;;;;;5033494;28;20037;-61
2021/05/31 06:05:15;;;;;;;2.72;1.83;;;22.80;37.10;;;;;;5027989;28;20578;-59
2021/05/31 06:07:41;;;;;;;1.30;0.98;;;22.80;36.40;;;;;;5035213;28;20038;-60
2021/05/31 06:10:07;;;;;;;1.08;0.98;;;22.80;36.50;;;;;;5034313;28;20035;-58
2021/05/31 06:12:33;;;;;;;3.08;0.95;;;22.80;36.50;;;;;;5035361;28;20033;-58
2021/05/31 06:14:59;;;;;;;1.50;1.00;;;22.90;36.60;;;;;;5034499;28;20033;-58
2021/05/31 06:17:25;;;;;;;2.00;1.13;;;22.90;36.60;;;;;;5029220;28;20032;-59
2021/05/31 06:19:51;;;;;;;1.90;1.40;;;22.90;36.60;;;;;;5033170;28;20029;-59
2021/05/31 06:22:17;;;;;;;2.88;2.00;;;22.80;36.50;;;;;;5034656;28;20410;-59
2021/05/31 06:24:44;;;;;;;1.88;1.65;;;22.70;36.50;;;;;;5034984;28;20029;-59
2021/05/31 06:27:10;;;;;;;3.67;1.73;;;22.80;36.70;;;;;;5033124;28;20056;-60
2021/05/31 06:29:36;;;;;;;1.77;1.17;;;22.80;36.70;;;;;;5031492;28;20682;-59
2021/05/31 06:32:02;;;;;;;1.35;1.00;;;22.80;36.80;;;;;;5034388;28;20108;-59
2021/05/31 06:34:28;;;;;;;0.68;0.68;;;22.80;36.80;;;;;;5031888;28;20040;-58
2021/05/31 06:36:55;;;;;;;1.65;0.90;;;22.80;36.80;;;;;;5034628;28;20031;-58
2021/05/31 06:39:21;;;;;;;0.80;0.73;;;22.80;36.80;;;;;;5033242;28;20029;-58
2021/05/31 06:41:48;;;;;;;0.80;0.70;;;22.80;36.80;;;;;;5034167;28;20095;-59
2021/05/31 06:44:14;;;;;;;1.05;0.73;;;22.90;36.90;;;;;;5034144;28;20479;-61
2021/05/31 06:46:40;;;;;;;0.77;0.77;;;22.80;36.90;;;;;;5033930;28;20110;-63
2021/05/31 06:49:06;;;;;;;2.10;0.88;;;22.80;36.80;;;;;;5033691;28;20498;-59
2021/05/31 06:51:32;;;;;;;1.17;0.80;;;22.90;36.90;;;;;;5033389;28;20028;-59
2021/05/31 06:53:58;;;;;;;0.70;0.70;;;22.90;37.00;;;;;;5033696;28;20047;-58
2021/05/31 06:56:24;;;;;;;2.97;0.88;;;22.90;36.90;;;;;;5035160;28;20443;-59
2021/05/31 06:58:50;;;;;;;1.02;0.85;;;22.90;37.00;;;;;;5036090;28;20387;-59
2021/05/31 07:01:17;;;;;;;2.22;0.80;;;22.90;37.00;;;;;;5035500;28;20053;-59
2021/05/31 07:03:43;;;;;;;1.90;0.80;;;22.90;37.10;;;;;;5032745;28;20025;-59
2021/05/31 07:06:09;;;;;;;2.50;1.25;;;22.90;37.10;;;;;;5047053;28;20518;-59
2021/05/31 07:08:36;;;;;;;1.15;0.88;;;22.90;37.10;;;;;;5030876;28;20057;-58
2021/05/31 07:11:09;;;;;;;0.80;0.80;;;22.90;37.20;;;;;;5034911;28;20021;-59
2021/05/31 07:13:34;;;;;;;1.00;0.90;;;22.90;37.20;;;;;;5032939;28;20550;-59
2021/05/31 07:16:00;;;;;;;1.00;0.80;;;23.00;37.30;;;;;;5035086;28;20099;-59
2021/05/31 07:18:26;;;;;;;1.33;0.90;;;23.00;37.50;;;;;;5032454;28;20777;-59
2021/05/31 07:20:53;;;;;;;1.85;0.85;;;23.00;37.50;;;;;;5033840;28;20036;-59
2021/05/31 07:23:19;;;;;;;0.68;0.68;;;23.00;37.50;;;;;;5032984;28;20125;-59
2021/05/31 07:25:46;;;;;;;2.15;0.95;;;23.00;37.60;;;;;;5033714;28;20115;-59
2021/05/31 07:28:13;;;;;;;1.65;0.90;;;23.00;37.80;;;;;;5033850;28;20040;-59
2021/05/31 07:30:39;;;;;;;3.05;1.10;;;23.00;38.10;;;;;;5034855;28;20027;-58
2021/05/31 07:33:09;;;;;;;1.17;1.02;;;23.00;38.20;;;;;;5032696;28;20033;-59
2021/05/31 07:35:35;;;;;;;6.72;1.23;;;23.00;38.10;;;;;;5034970;28;20147;-59
2021/05/31 07:38:01;;;;;;;3.03;1.00;;;23.00;38.60;;;;;;5034569;28;20136;-59
2021/05/31 07:40:27;;;;;;;1.60;1.02;;;23.00;38.20;;;;;;5033088;28;20033;-59
2021/05/31 07:42:53;;;;;;;1.98;0.95;;;23.10;38.30;;;;;;5034960;28;20025;-57
2021/05/31 07:45:19;;;;;;;2.45;1.00;;;23.10;39.20;;;;;;5033483;28;20048;-59
2021/05/31 07:47:46;;;;;;;2.90;1.05;;;23.10;39.00;;;;;;5034152;28;20094;-67
2021/05/31 07:50:13;;;;;;;1.98;1.10;;;23.10;39.20;;;;;;5040485;28;20025;-68
2021/05/31 07:52:39;;;;;;;1.83;1.00;;;23.10;39.10;;;;;;5036254;28;20030;-65
2021/05/31 07:55:10;;;;;;;1.42;1.30;;;23.10;39.50;;;;;;5038173;28;20033;-67
2021/05/31 07:57:36;;;;;;;4.40;1.00;;;23.30;40.10;;;;;;5036665;28;20643;-66
2021/05/31 08:00:05;;;;;;;1.48;1.38;;;23.30;39.80;;;;;;5037060;28;20049;-66
2021/05/31 08:02:30;;;;;;;3.25;1.30;;;23.30;39.90;;;;;;5037457;28;20179;-63
2021/05/31 08:04:56;;;;;;;3.15;1.10;;;23.30;40.30;;;;;;5037950;28;21133;-64
2021/05/31 08:07:22;;;;;;;1.85;1.20;;;23.40;40.40;;;;;;5036654;28;20080;-60
2021/05/31 08:09:48;;;;;;;2.67;1.15;;;23.50;40.60;;;;;;5037846;28;20029;-61
2021/05/31 08:12:15;;;;;;;1.92;0.90;;;23.40;40.50;;;;;;5038817;28;20064;-57
2021/05/31 08:14:40;;;;;;;1.30;1.10;;;23.40;40.20;;;;;;5037846;28;20462;-55
2021/05/31 08:17:06;;;;;;;4.25;1.30;;;23.40;40.10;;;;;;5037508;28;20083;-59
2021/05/31 08:19:32;;;;;;;8.27;1.35;;;23.40;40.40;;;;;;5037113;28;20554;-62
2021/05/31 08:22:00;;;;;;;7.32;1.83;;;23.40;40.80;;;;;;5038426;28;20024;-56
2021/05/31 08:24:26;;;;;;;5.32;1.63;;;23.40;41.30;;;;;;5036248;28;20083;-57
2021/05/31 08:26:52;;;;;;;10.32;1.73;;;23.40;41.50;;;;;;5036466;28;20052;-56
2021/05/31 08:29:19;;;;;;;6.38;1.63;;;23.40;41.40;;;;;;5036858;28;20052;-55
2021/05/31 08:31:45;;;;;;;3.88;1.30;;;23.40;41.90;;;;;;5037419;28;20021;-54
2021/05/31 08:34:12;;;;;;;4.93;1.40;;;23.40;42.10;;;;;;5036548;28;20086;-55
2021/05/31 08:36:37;;;;;;;2.92;0.93;;;23.40;42.00;;;;;;5036079;28;20029;-56
2021/05/31 08:39:04;;;;;;;3.63;1.60;;;23.40;42.10;;;;;;5037772;28;20033;-56
2021/05/31 08:41:30;;;;;;;3.72;1.20;;;23.40;42.40;;;;;;5036459;28;20558;-55
2021/05/31 08:43:56;;;;;;;5.47;1.52;;;23.40;42.20;;;;;;5039361;28;20071;-57
2021/05/31 08:46:22;;;;;;;2.53;1.20;;;23.40;42.10;;;;;;5038444;28;20381;-56
2021/05/31 08:48:48;;;;;;;7.28;1.40;;;23.40;42.20;;;;;;5035733;28;20107;-56
2021/05/31 08:51:17;;;;;;;9.05;1.90;;;23.50;42.40;;;;;;5037735;28;20463;-56
2021/05/31 08:53:44;;;;;;;4.90;1.67;;;23.50;42.40;;;;;;5035935;28;20496;-56
2021/05/31 08:56:11;;;;;;;4.40;2.50;;;23.50;41.90;;;;;;5038086;28;20033;-56
2021/05/31 08:58:36;;;;;;;16.90;2.95;;;23.30;41.00;;;;;;5036319;28;20021;-57
2021/05/31 09:01:03;;;;;;;13.18;2.47;;;23.30;42.40;;;;;;5034921;28;20075;-58
2021/05/31 09:03:30;;;;;;;15.68;2.90;;;23.60;43.30;;;;;;5033972;28;20586;-64
2021/05/31 09:06:04;;;;;;;8.27;1.63;;;;;;;;;;5035954;28;20049;-62
2021/05/31 09:08:31;;;;;;;7.05;1.80;;;;;;;;;;5036472;28;20519;-66
2021/05/31 09:11:02;;;;;;;6.95;2.00;;;23.70;42.40;;;;;;5036396;28;20567;-68
2021/05/31 09:13:30;;;;;;;3.92;1.48;;;23.70;42.80;;;;;;5037712;28;20037;-65
2021/05/31 09:16:16;;;;;;;10.88;1.83;;;23.80;42.20;;;;;;5037808;28;20017;-67
2021/05/31 09:19:00;;;;;;;2.25;1.77;;;23.80;42.50;;;;;;5034142;28;20028;-66
2021/05/31 09:21:33;;;;;;;6.15;1.45;;;23.80;42.20;;;;;;5036995;28;20053;-66
2021/05/31 09:24:07;;;;;;;5.50;1.88;;;23.70;41.60;;;;;;5034650;28;20021;-66
2021/05/31 09:26:56;;;;;;;6.33;1.40;;;23.70;41.50;;;;;;5035360;28;20028;-67
2021/05/31 09:29:22;;;;;;;8.55;2.35;;;23.60;41.70;;;;;;5035695;28;20045;-67
2021/05/31 09:32:00;;;;;;;3.60;1.60;;;23.60;41.50;;;;;;5035460;28;20029;-67
2021/05/31 09:34:26;;;;;;;4.90;1.77;;;23.60;41.60;;;;;;5035164;28;20029;-67
2021/05/31 09:36:58;;;;;;;2.22;1.75;;;23.60;41.50;;;;;;5037216;28;20029;-67
2021/05/31 09:39:43;;;;;;;1.95;1.50;;;23.60;41.40;;;;;;5034719;28;20504;-67
2021/05/31 09:42:16;;;;;;;4.85;1.25;;;23.60;41.60;;;;;;5037277;28;20021;-63
2021/05/31 09:44:43;;;;;;;4.40;1.20;;;23.60;41.60;;;;;;5042814;28;20045;-69
2021/05/31 09:47:10;;;;;;;2.92;2.03;;;23.60;41.90;;;;;;5037278;28;20033;-69
2021/05/31 09:49:36;;;;;;;2.67;1.50;;;23.60;42.40;;;;;;5036842;28;20033;-69
2021/05/31 09:52:07;;;;;;;4.10;1.60;;;23.60;42.40;;;;;;5035224;28;20071;-69
2021/05/31 09:54:40;;;;;;;3.17;1.80;;;23.60;42.60;;;;;;5036892;28;20067;-68
2021/05/31 09:57:16;;;;;;;3.33;1.30;;;23.50;42.20;;;;;;5036478;28;20065;-68
2021/05/31 09:59:52;;;;;;;3.25;1.65;;;23.50;42.40;;;;;;5036562;28;20035;-69
2021/05/31 10:02:25;;;;;;;4.30;1.20;;;23.50;42.50;;;;;;5036095;28;20038;-69
2021/05/31 10:09:58;;;;;;;3.70;1.38;;;23.50;41.70;;;;;;5036232;28;20033;-69
2021/05/31 10:12:25;;;;;;;1.80;1.30;;;23.50;41.60;;;;;;5037836;28;20043;-67
2021/05/31 10:14:53;;;;;;;3.97;1.00;;;23.50;41.80;;;;;;5035875;28;20029;-67
2021/05/31 10:17:23;;;;;;;3.70;1.10;;;23.50;41.60;;;;;;5034845;28;20040;-68
2021/05/31 10:19:49;;;;;;;7.05;1.30;;;23.50;41.80;;;;;;5035117;28;20075;-68
2021/05/31 10:22:16;;;;;;;1.73;0.88;;;23.50;41.60;;;;;;5034888;28;20030;-67
2021/05/31 10:24:43;;;;;;;2.40;1.00;;;23.50;41.80;;;;;;5034707;28;20069;-68
2021/05/31 10:27:15;;;;;;;4.22;1.20;;;23.50;41.70;;;;;;5036500;28;20021;-68
2021/05/31 10:29:43;;;;;;;3.80;0.88;;;23.50;41.60;;;;;;5035918;28;20267;-69
2021/05/31 10:32:11;;;;;;;2.97;1.10;;;23.50;41.70;;;;;;5050567;28;20029;-67
2021/05/31 10:34:51;;;;;;;1.98;1.15;;;23.50;41.70;;;;;;5035294;28;20127;-68
2021/05/31 10:37:21;;;;;;;5.88;1.50;;;23.50;41.50;;;;;;5034266;28;20056;-67
2021/05/31 10:40:10;;;;;;;2.58;1.13;;;23.50;41.60;;;;;;5034150;28;20040;-66
2021/05/31 10:42:45;;;;;;;4.10;1.38;;;23.50;41.50;;;;;;5035503;28;20013;-68
2021/05/31 10:45:30;;;;;;;2.65;1.33;;;23.50;41.30;;;;;;5034604;28;20025;-67
2021/05/31 10:48:01;;;;;;;;;;;23.50;41.40;;;;;;5035831;28;20183;-67
2021/05/31 10:50:36;;;;;;;3.28;0.93;;;23.50;41.30;;;;;;5035142;28;19984;-63
2021/05/31 10:53:19;;;;;;;0.68;0.68;;;23.50;41.50;;;;;;5035100;28;20833;-65
2021/05/31 10:55:53;;;;;;;3.72;1.20;;;23.50;41.50;;;;;;5033568;28;20021;-66
2021/05/31 10:58:23;;;;;;;;;;;23.50;42.10;;;;;;5035279;28;20032;-66
2021/05/31 11:01:04;;;;;;;3.20;1.00;;;23.50;40.70;;;;;;5034474;28;19909;-66
2021/05/31 11:03:42;;;;;;;4.65;1.20;;;23.50;40.80;;;;;;5033541;28;20439;-66
2021/05/31 11:06:23;;;;;;;4.45;1.00;;;23.50;40.60;;;;;;5034518;28;20098;-66
2021/05/31 11:08:50;;;;;;;5.53;1.20;;;23.50;40.20;;;;;;5034042;28;20029;-67
2021/05/31 11:11:25;;;;;;;6.20;1.42;;;23.50;40.10;;;;;;5036097;28;20557;-67
2021/05/31 11:13:52;;;;;;;3.58;1.08;;;23.50;39.90;;;;;;5033849;28;20165;-67
2021/05/31 11:16:17;;;;;;;1.65;0.80;;;23.50;39.70;;;;;;5033806;28;20541;-67
2021/05/31 11:18:45;;;;;;;2.70;1.38;;;23.50;39.50;;;;;;5033007;28;20037;-66
2021/05/31 11:21:24;;;;;;;2.70;1.20;;;23.50;39.30;;;;;;5035044;28;20064;-66
2021/05/31 11:24:18;;;;;;;4.65;1.10;;;23.50;39.10;;;;;;5032617;28;20053;-67
2021/05/31 11:26:46;;;;;;;2.40;1.13;;;23.50;38.90;;;;;;5033797;28;20488;-67
2021/05/31 11:29:12;;;;;;;1.85;1.13;;;23.50;38.90;;;;;;5034540;28;20098;-66
2021/05/31 11:31:42;;;;;;;3.05;1.00;;;23.50;38.70;;;;;;5031640;28;20037;-67
2021/05/31 11:34:08;;;;;;;4.78;0.90;;;23.50;38.70;;;;;;5038516;28;20082;-67
2021/05/31 11:36:38;;;;;;;2.78;1.00;;;23.50;38.50;;;;;;5034849;28;20551;-66
2021/05/31 11:39:08;;;;;;;1.00;0.90;;;23.50;38.30;;;;;;5028027;28;20049;-71
2021/05/31 11:41:39;;;;;;;1.30;0.88;;;23.50;37.80;;;;;;5032480;28;20035;-61
2021/05/31 11:44:09;;;;;;;3.35;1.00;;;23.50;37.90;;;;;;5033503;28;20060;-65
2021/05/31 11:46:45;;;;;;;4.82;1.60;;;23.50;37.40;;;;;;5033809;28;20025;-64
2021/05/31 11:49:11;;;;;;;1.50;1.40;;;23.50;36.80;;;;;;5032224;28;20041;-64
2021/05/31 11:51:38;;;;;;;2.85;1.20;;;23.50;36.20;;;;;;5032779;28;20372;-64
2021/05/31 11:54:05;;;;;;;2.45;1.10;;;23.40;36.30;;;;;;5031811;28;20117;-63
2021/05/31 11:56:36;;;;;;;2.80;1.05;;;23.40;36.30;;;;;;5033829;28;20036;-64
2021/05/31 11:59:02;;;;;;;3.22;0.80;;;23.40;36.50;;;;;;5031986;28;20029;-63
2021/05/31 12:01:29;;;;;;;1.30;0.70;;;23.50;36.60;;;;;;5033708;28;20029;-64
2021/05/31 12:03:55;;;;;;;2.80;1.45;;;23.50;36.70;;;;;;5033746;28;20024;-62
2021/05/31 12:06:21;;;;;;;9.38;7.22;;;23.50;36.90;;;;;;5031300;28;20046;-64
2021/05/31 12:08:47;;;;;;;9.07;5.60;;;23.50;37.10;;;;;;5032920;28;20064;-63
2021/05/31 12:11:25;;;;;;;6.55;4.75;;;23.60;37.20;;;;;;5032119;28;20026;-63
2021/05/31 12:14:02;;;;;;;6.13;4.00;;;23.60;37.10;;;;;;5033565;28;20048;-63
2021/05/31 12:16:28;;;;;;;6.43;3.38;;;23.60;37.10;;;;;;5033489;28;20330;-63
2021/05/31 12:18:55;;;;;;;8.30;3.70;;;23.60;37.00;;;;;;5031687;28;20025;-64
2021/05/31 12:21:22;;;;;;;4.28;2.35;;;23.60;37.00;;;;;;5039384;28;20037;-64
2021/05/31 12:23:50;;;;;;;2.95;2.35;;;23.60;37.10;;;;;;5040035;28;20064;-64
2021/05/31 12:26:22;;;;;;;3.10;2.40;;;23.60;37.10;;;;;;5033615;28;20022;-63
2021/05/31 12:28:52;;;;;;;4.45;2.97;;;23.60;37.00;;;;;;5032955;28;20041;-63
2021/05/31 12:31:19;;;;;;;6.68;3.55;;;23.60;37.00;;;;;;5032237;28;20087;-64
2021/05/31 12:33:45;;;;;;;3.90;2.17;;;23.60;36.90;;;;;;5028536;28;20105;-62
2021/05/31 12:36:11;;;;;;;4.88;1.80;;;23.50;35.20;;;;;;5031127;28;20511;-63
2021/05/31 12:38:39;;;;;;;7.38;2.63;;;23.50;34.10;;;;;;5035095;28;20912;-63
2021/05/31 12:41:05;;;;;;;3.83;1.60;;;23.50;34.40;;;;;;5035176;28;20026;-63
2021/05/31 12:43:35;;;;;;;2.60;1.90;;;23.50;34.20;;;;;;5033346;28;20024;-63
2021/05/31 12:46:02;;;;;;;1.88;1.40;;;23.40;33.00;;;;;;5037697;28;20699;-63
2021/05/31 12:48:28;;;;;;;8.07;1.77;;;23.40;34.10;;;;;;5036190;28;20034;-62
2021/05/31 12:51:12;;;;;;;2.72;1.27;;;23.40;33.00;;;;;;5038293;28;20021;-63
2021/05/31 12:53:39;;;;;;;1.65;1.35;;;23.30;31.10;;;;;;5035353;28;20041;-62
2021/05/31 12:56:05;;;;;;;2.38;1.40;;;23.30;32.90;;;;;;5034502;28;20032;-64
2021/05/31 12:58:32;;;;;;;3.95;1.08;;;23.30;32.90;;;;;;5032411;28;20060;-63
2021/05/31 13:00:58;;;;;;;3.38;1.45;;;23.30;33.10;;;;;;5033124;28;20021;-63
2021/05/31 13:03:30;;;;;;;2.85;1.30;;;23.30;33.50;;;;;;5033269;28;20496;-62
2021/05/31 13:05:56;;;;;;;5.95;1.50;;;23.30;33.80;;;;;;5033484;28;20049;-62
2021/05/31 13:08:22;;;;;;;2.92;1.85;;;23.40;33.90;;;;;;5034648;28;20115;-63
2021/05/31 13:10:52;;;;;;;2.72;1.20;;;23.40;34.10;;;;;;5032929;28;20029;-62
2021/05/31 13:13:20;;;;;;;2.67;1.10;;;23.40;34.10;;;;;;5032341;28;20033;-62